Burgtor — V2OR7 — position and weather

sailwx.info

Track history (hours):
 
Tides and Currents Weather Stations Pressure Air Temp Water Temp Dewpoint Dewpoint Depression Visibility Wind Speed Wind Dir Waves Ship Positions

Burgtor

Last reported at 2015-Jul-31 17:11 UTC. Time now 2015-Aug-02 00:15 UTC.
Position N 53°43' W 000°35'.

Length 87 m; draft 5.2 m.

Type: Cargo ship. MMSI: 304665000.

Date/timePositionNaut miles runAvg speedWind from/ knotsBaromVisibWave heightAir tempDewpointWater temp
2015-Jul-31 17:11N 53°43' W 000°35'6 8.9
2015-Jul-31 16:34N 53°42' W 000°25'10 9.8
2015-Jul-31 15:33N 53°39' W 000°10'1211.6
2015-Jul-31 14:33N 53°33' E 000°08'9 8.6
2015-Jul-31 13:34N 53°33' E 000°22'3 2.6
2015-Jul-31 12:31N 53°35' E 000°25'0 0.1
2015-Jul-31 11:31N 53°35' E 000°25'0 0.0
2015-Jul-31 10:31N 53°35' E 000°25'0 0.0
2015-Jul-31 09:31N 53°35' E 000°25'42 7.8
2015-Jul-31 04:10N 53°02' E 001°07'5 8.2
2015-Jul-31 03:33N 53°00' E 001°15'9 9.3
2015-Jul-31 02:33N 52°56' E 001°29'1111.1
2015-Jul-31 01:33N 52°50' E 001°44'1010.2
2015-Jul-31 00:33N 52°42' E 001°54'1111.1
2015-Jul-30 23:33N 52°31' E 001°54'10 8.9
2015-Jul-30 22:27N 52°21' E 001°53'7 7.7
2015-Jul-30 21:33N 52°14' E 001°51'7 7.2
2015-Jul-30 20:33N 52°07' E 001°50'6 6.5
2015-Jul-30 19:33N 52°00' E 001°49'7 6.8
2015-Jul-30 18:33N 51°54' E 001°48'6 6.0
2015-Jul-30 17:33N 51°50' E 001°41'9 8.9
2015-Jul-30 16:33N 51°46' E 001°28'1010.0
2015-Jul-30 15:33N 51°39' E 001°16'1010.4
2015-Jul-30 14:33N 51°33' E 001°03'1110.9
2015-Jul-30 13:33N 51°29' E 000°46'1110.6
2015-Jul-30 12:33N 51°30' E 000°30'6 6.2
2015-Jul-30 11:33N 51°27' E 000°21'0 0.3
2015-Jul-30 10:33N 51°28' E 000°21'0 0.0
2015-Jul-30 09:34N 51°28' E 000°21'0 0.0
2015-Jul-30 08:33N 51°28' E 000°21'0 0.0
2015-Jul-30 07:33N 51°28' E 000°21'0 0.0
2015-Jul-30 06:33N 51°28' E 000°21'0 0.0
2015-Jul-30 05:34N 51°28' E 000°21'0 0.0
2015-Jul-30 04:34N 51°28' E 000°21'0 0.0
2015-Jul-30 03:34N 51°28' E 000°21'0 0.0
2015-Jul-30 02:34N 51°28' E 000°21'0 0.0
2015-Jul-30 01:34N 51°28' E 000°21'0 0.0
2015-Jul-30 00:33N 51°28' E 000°21'0 0.0
2015-Jul-29 23:33N 51°28' E 000°21'0 0.0
2015-Jul-29 22:34N 51°28' E 000°21'0 0.0
2015-Jul-29 21:33N 51°28' E 000°21'0 0.0
2015-Jul-29 20:34N 51°28' E 000°21'0 0.0
2015-Jul-29 19:33N 51°28' E 000°21'0 0.0
2015-Jul-29 18:33N 51°28' E 000°21'0 0.0
2015-Jul-29 17:33N 51°28' E 000°21'0 0.0
2015-Jul-29 16:34N 51°28' E 000°21'0 0.0
2015-Jul-29 15:34N 51°28' E 000°21'0 0.0
2015-Jul-29 14:33N 51°28' E 000°21'0 0.0
2015-Jul-29 13:34N 51°28' E 000°21'0 0.0
2015-Jul-29 12:34N 51°28' E 000°21'0 0.0
2015-Jul-29 11:34N 51°28' E 000°21'0 0.0
2015-Jul-29 10:34N 51°28' E 000°21'0 0.0
2015-Jul-29 09:34N 51°28' E 000°21'0 0.0
2015-Jul-29 08:33N 51°28' E 000°21'0 0.0
2015-Jul-29 07:34N 51°28' E 000°21'0 0.0
2015-Jul-29 06:33N 51°28' E 000°21'0 0.0
2015-Jul-29 05:34N 51°28' E 000°21'0 0.0
2015-Jul-29 04:34N 51°28' E 000°21'0 0.0
2015-Jul-29 03:34N 51°28' E 000°21'0 0.0
2015-Jul-29 02:34N 51°28' E 000°21'0 0.0
2015-Jul-29 01:34N 51°28' E 000°21'0 0.0
2015-Jul-29 00:34N 51°28' E 000°21'0 0.0
2015-Jul-28 23:33N 51°28' E 000°21'0 0.0
2015-Jul-28 22:34N 51°28' E 000°21'0 0.0
2015-Jul-28 21:34N 51°28' E 000°21'0 0.0
2015-Jul-28 20:33N 51°28' E 000°21'0 0.0
2015-Jul-28 19:34N 51°28' E 000°21'0 0.0
2015-Jul-28 18:34N 51°28' E 000°21'0 0.0
2015-Jul-28 17:34N 51°28' E 000°21'0 0.0
2015-Jul-28 16:34N 51°28' E 000°21'0 0.0
2015-Jul-28 15:34N 51°28' E 000°21'0 0.0
2015-Jul-28 14:33N 51°28' E 000°21'0 0.0
2015-Jul-28 13:34N 51°28' E 000°21'0 0.3
2015-Jul-28 12:34N 51°27' E 000°21'3 2.9
2015-Jul-28 11:33N 51°27' E 000°25'6 6.5
2015-Jul-28 10:33N 51°30' E 000°34'8 8.1
2015-Jul-28 09:33N 51°30' E 000°47'8 7.8
2015-Jul-28 08:33N 51°31' E 000°60'1 0.6
2015-Jul-28 07:30N 51°31' E 001°00'0 0.0
2015-Jul-28 06:33N 51°31' E 001°00'0 0.1
2015-Jul-28 05:33N 51°31' E 001°00'0 0.1
2015-Jul-28 04:33N 51°31' E 001°01'0 0.0
2015-Jul-28 03:33N 51°31' E 001°01'0 0.0
2015-Jul-28 02:33N 51°31' E 001°01'0 0.0
2015-Jul-28 01:33N 51°31' E 001°01'0 0.0
2015-Jul-28 00:21N 51°31' E 001°01'0 0.0
2015-Jul-27 23:21N 51°31' E 001°01'0 0.0
2015-Jul-27 22:33N 51°31' E 001°01'0 0.0
2015-Jul-27 21:33N 51°31' E 001°01'0 0.0
2015-Jul-27 20:24N 51°31' E 001°01'0 0.1
2015-Jul-27 19:24N 51°31' E 001°00'0 0.1
2015-Jul-27 18:12N 51°31' E 001°00'0 0.0
2015-Jul-27 17:33N 51°31' E 001°00'0 0.1
2015-Jul-27 16:09N 51°31' E 001°01'0 0.0
2015-Jul-27 14:27N 51°31' E 001°01'0 0.0
2015-Jul-27 13:27N 51°31' E 001°01'3 3.0
2015-Jul-27 12:33N 51°29' E 000°58'7 7.0
2015-Jul-27 11:33N 51°29' E 001°09'7 6.9
2015-Jul-27 10:33N 51°29' E 001°20'7 6.9
2015-Jul-27 09:33N 51°29' E 001°31'7 6.8
2015-Jul-27 08:33N 51°29' E 001°42'7 6.5
2015-Jul-27 07:33N 51°29' E 001°53'6 5.6
2015-Jul-27 06:33N 51°27' E 002°01'8 7.5
2015-Jul-27 05:33N 51°20' E 002°05'7 7.3
2015-Jul-27 04:33N 51°13' E 002°01'9 8.5
2015-Jul-27 03:33N 51°09' E 001°49'8 8.4
2015-Jul-27 02:33N 51°05' E 001°38'9 8.6
2015-Jul-27 01:33N 50°58' E 001°29'  
Track history (hours):
 
Tides and Currents Weather Stations Pressure Air Temp Water Temp Dewpoint Dewpoint Depression Visibility Wind Speed Wind Dir Waves Ship Positions

Burgtor

Last reported at 2015-Jul-31 17:11 UTC. Time now 2015-Aug-02 00:15 UTC.
Position N 53°43' W 000°35'.

Length 87 m; draft 5.2 m.

Type: Cargo ship. MMSI: 304665000.

Date/timePositionNaut miles runAvg speedWind from/ knotsBaromVisibWave heightAir tempDewpointWater temp
2015-Jul-31 17:11N 53°43' W 000°35'6 8.9
2015-Jul-31 16:34N 53°42' W 000°25'10 9.8
2015-Jul-31 15:33N 53°39' W 000°10'1211.6
2015-Jul-31 14:33N 53°33' E 000°08'9 8.6
2015-Jul-31 13:34N 53°33' E 000°22'3 2.6
2015-Jul-31 12:31N 53°35' E 000°25'0 0.1
2015-Jul-31 11:31N 53°35' E 000°25'0 0.0
2015-Jul-31 10:31N 53°35' E 000°25'0 0.0
2015-Jul-31 09:31N 53°35' E 000°25'42 7.8
2015-Jul-31 04:10N 53°02' E 001°07'5 8.2
2015-Jul-31 03:33N 53°00' E 001°15'9 9.3
2015-Jul-31 02:33N 52°56' E 001°29'1111.1
2015-Jul-31 01:33N 52°50' E 001°44'1010.2
2015-Jul-31 00:33N 52°42' E 001°54'1111.1
2015-Jul-30 23:33N 52°31' E 001°54'10 8.9
2015-Jul-30 22:27N 52°21' E 001°53'7 7.7
2015-Jul-30 21:33N 52°14' E 001°51'7 7.2
2015-Jul-30 20:33N 52°07' E 001°50'6 6.5
2015-Jul-30 19:33N 52°00' E 001°49'7 6.8
2015-Jul-30 18:33N 51°54' E 001°48'6 6.0
2015-Jul-30 17:33N 51°50' E 001°41'9 8.9
2015-Jul-30 16:33N 51°46' E 001°28'1010.0
2015-Jul-30 15:33N 51°39' E 001°16'1010.4
2015-Jul-30 14:33N 51°33' E 001°03'1110.9
2015-Jul-30 13:33N 51°29' E 000°46'1110.6
2015-Jul-30 12:33N 51°30' E 000°30'6 6.2
2015-Jul-30 11:33N 51°27' E 000°21'0 0.3
2015-Jul-30 10:33N 51°28' E 000°21'0 0.0
2015-Jul-30 09:34N 51°28' E 000°21'0 0.0
2015-Jul-30 08:33N 51°28' E 000°21'0 0.0
2015-Jul-30 07:33N 51°28' E 000°21'0 0.0
2015-Jul-30 06:33N 51°28' E 000°21'0 0.0
2015-Jul-30 05:34N 51°28' E 000°21'0 0.0
2015-Jul-30 04:34N 51°28' E 000°21'0 0.0
2015-Jul-30 03:34N 51°28' E 000°21'0 0.0
2015-Jul-30 02:34N 51°28' E 000°21'0 0.0
2015-Jul-30 01:34N 51°28' E 000°21'0 0.0
2015-Jul-30 00:33N 51°28' E 000°21'0 0.0
2015-Jul-29 23:33N 51°28' E 000°21'0 0.0
2015-Jul-29 22:34N 51°28' E 000°21'0 0.0
2015-Jul-29 21:33N 51°28' E 000°21'0 0.0
2015-Jul-29 20:34N 51°28' E 000°21'0 0.0
2015-Jul-29 19:33N 51°28' E 000°21'0 0.0
2015-Jul-29 18:33N 51°28' E 000°21'0 0.0
2015-Jul-29 17:33N 51°28' E 000°21'0 0.0
2015-Jul-29 16:34N 51°28' E 000°21'0 0.0
2015-Jul-29 15:34N 51°28' E 000°21'0 0.0
2015-Jul-29 14:33N 51°28' E 000°21'0 0.0
2015-Jul-29 13:34N 51°28' E 000°21'0 0.0
2015-Jul-29 12:34N 51°28' E 000°21'0 0.0
2015-Jul-29 11:34N 51°28' E 000°21'0 0.0
2015-Jul-29 10:34N 51°28' E 000°21'0 0.0
2015-Jul-29 09:34N 51°28' E 000°21'0 0.0
2015-Jul-29 08:33N 51°28' E 000°21'0 0.0
2015-Jul-29 07:34N 51°28' E 000°21'0 0.0
2015-Jul-29 06:33N 51°28' E 000°21'0 0.0
2015-Jul-29 05:34N 51°28' E 000°21'0 0.0
2015-Jul-29 04:34N 51°28' E 000°21'0 0.0
2015-Jul-29 03:34N 51°28' E 000°21'0 0.0
2015-Jul-29 02:34N 51°28' E 000°21'0 0.0
2015-Jul-29 01:34N 51°28' E 000°21'0 0.0
2015-Jul-29 00:34N 51°28' E 000°21'0 0.0
2015-Jul-28 23:33N 51°28' E 000°21'0 0.0
2015-Jul-28 22:34N 51°28' E 000°21'0 0.0
2015-Jul-28 21:34N 51°28' E 000°21'0 0.0
2015-Jul-28 20:33N 51°28' E 000°21'0 0.0
2015-Jul-28 19:34N 51°28' E 000°21'0 0.0
2015-Jul-28 18:34N 51°28' E 000°21'0 0.0
2015-Jul-28 17:34N 51°28' E 000°21'0 0.0
2015-Jul-28 16:34N 51°28' E 000°21'0 0.0
2015-Jul-28 15:34N 51°28' E 000°21'0 0.0
2015-Jul-28 14:33N 51°28' E 000°21'0 0.0
2015-Jul-28 13:34N 51°28' E 000°21'0 0.3
2015-Jul-28 12:34N 51°27' E 000°21'3 2.9
2015-Jul-28 11:33N 51°27' E 000°25'6 6.5
2015-Jul-28 10:33N 51°30' E 000°34'8 8.1
2015-Jul-28 09:33N 51°30' E 000°47'8 7.8
2015-Jul-28 08:33N 51°31' E 000°60'1 0.6
2015-Jul-28 07:30N 51°31' E 001°00'0 0.0
2015-Jul-28 06:33N 51°31' E 001°00'0 0.1
2015-Jul-28 05:33N 51°31' E 001°00'0 0.1
2015-Jul-28 04:33N 51°31' E 001°01'0 0.0
2015-Jul-28 03:33N 51°31' E 001°01'0 0.0
2015-Jul-28 02:33N 51°31' E 001°01'0 0.0
2015-Jul-28 01:33N 51°31' E 001°01'0 0.0
2015-Jul-28 00:21N 51°31' E 001°01'0 0.0
2015-Jul-27 23:21N 51°31' E 001°01'0 0.0
2015-Jul-27 22:33N 51°31' E 001°01'0 0.0
2015-Jul-27 21:33N 51°31' E 001°01'0 0.0
2015-Jul-27 20:24N 51°31' E 001°01'0 0.1
2015-Jul-27 19:24N 51°31' E 001°00'0 0.1
2015-Jul-27 18:12N 51°31' E 001°00'0 0.0
2015-Jul-27 17:33N 51°31' E 001°00'0 0.1
2015-Jul-27 16:09N 51°31' E 001°01'0 0.0
2015-Jul-27 14:27N 51°31' E 001°01'0 0.0
2015-Jul-27 13:27N 51°31' E 001°01'3 3.0
2015-Jul-27 12:33N 51°29' E 000°58'7 7.0
2015-Jul-27 11:33N 51°29' E 001°09'7 6.9
2015-Jul-27 10:33N 51°29' E 001°20'7 6.9
2015-Jul-27 09:33N 51°29' E 001°31'7 6.8
2015-Jul-27 08:33N 51°29' E 001°42'7 6.5
2015-Jul-27 07:33N 51°29' E 001°53'6 5.6
2015-Jul-27 06:33N 51°27' E 002°01'8 7.5
2015-Jul-27 05:33N 51°20' E 002°05'7 7.3
2015-Jul-27 04:33N 51°13' E 002°01'9 8.5
2015-Jul-27 03:33N 51°09' E 001°49'8 8.4
2015-Jul-27 02:33N 51°05' E 001°38'9 8.6
2015-Jul-27 01:33N 50°58' E 001°29'  

Dump ship's entire track history